METAR Data
IDs: Format: Raw Decoded Include TAF

Data at: 0100 UTC 06 Dec 2019

METAR for:KFRR (Front Royal/Warren C, VA, US)
Text:KFRR 060055Z AUTO 21003KT 10SM CLR 03/M06 A3010 RMK AO1
Temperature: 3.0°C ( 37°F)
Dewpoint: -6.0°C ( 21°F) [RH = 52%]
Pressure (altimeter):30.10 inches Hg (1019.4 mb)
Winds:from the SSW (210 degrees) at 3 MPH (3 knots; 1.5 m/s)
Visibility:10 or more sm (16+ km)
Ceiling:at least 12,000 feet AGL
Clouds:sky clear below 12,000 feet AGL
QC Flag:automated observation with no human augmentation